• Join FlightAware (Why Join?)
  • Login
  • US Flag 
12:32PM EDT


 

Airport Tracker/Info


-or-


 

Live Flight TrackerFlight Track Log ✈ SWA158 ✈ 19-Apr-2013 ✈ KMDW - KMHT

Flight Track Log - Related Links

Times and Time Zones

All times are in EDT time to prevent confusion due to time zone crossing. See the SWA158 flight status page for this flight to view local times or setup timezone preferences in your user account.

Time Position Orientation Groundspeed Altitude Reporting Facility
EDT Latitude Longitude Course Direction KTS MPH feet Rate Location/Type
02:47PM 41.8167 -87.7833 360° North 229 264 3,000  Level Chicago TRACON
02:48PM 41.8333 -87.7167 71° East 249 287 3,000 840 Level Chicago TRACON
02:49PM 41.8167 -87.6167 103° East 255 293 4,600 1,680 Climbing Chicago TRACON
02:50PM 41.8094 -87.5742 103° East 252 290 5,800 2,580 Climbing Chicago Center
02:51PM 41.7953 -87.4578 99° East 302 348 8,900 3,180 Climbing Chicago Center
02:52PM 41.8014 -87.3353 86° East 329 379 12,400 3,300 Climbing Chicago Center
02:53PM 41.8114 -87.1772 85° East 348 400 15,800 3,180 Climbing Chicago Center
02:54PM 41.8253 -87.0275 83° East 392 451 19,000 3,000 Climbing Chicago Center
02:55PM 41.8364 -86.8753 84° East 407 468 22,100 2,700 Climbing Chicago Center
02:56PM 41.8500 -86.7194 83° East 418 481 24,700 2,220 Climbing Chicago Center
02:57PM 41.8672 -86.5517 82° East 433 498 26,700 1,740 Climbing Chicago Center
02:58PM 41.8908 -86.3800 79° East 459 528 28,300 1,500 Climbing Chicago Center
02:59PM 41.9136 -86.2003 80° East 479 551 29,800 1,500 Climbing Chicago Center
03:00PM 41.9408 -85.9769 81° East 500 575 31,600 1,380 Climbing Chicago Center
03:01PM 41.9650 -85.7839 80° East 515 593 32,800 1,140 Climbing Chicago Center
03:02PM 41.9889 -85.5897 81° East 521 600 34,000 720 Climbing Chicago Center
03:03PM 42.0119 -85.3797 82° East 520 598 34,300 480 Climbing Chicago Center
03:04PM 42.0358 -85.2050 80° East 524 603 35,000 780 Climbing Cleveland Center
03:05PM 42.0581 -85.0081 81° East 543 625 35,800 600 Climbing Cleveland Center
03:06PM 42.0781 -84.8108 82° East 538 619 36,300 1,020 Climbing Cleveland Center
03:07PM 42.0967 -84.6411 82° East 532 612 37,900 960 Climbing Cleveland Center
03:08PM 42.1178 -84.4522 81° East 515 593 38,300 540 Climbing Cleveland Center
03:09PM 42.1353 -84.2375 84° East 515 593 39,000 300 Climbing Cleveland Center
03:10PM 42.1558 -84.0453 82° East 515 593 39,000  Level Cleveland Center
03:11PM 42.1739 -83.8586 83° East 515 593 39,000  Level Cleveland Center
03:12PM 42.1936 -83.6689 82° East 515 593 39,000  Level Cleveland Center
03:13PM 42.2108 -83.4903 83° East 526 605 39,000  Level Cleveland Center
03:14PM 42.2300 -83.2978 82° East 521 600 39,000  Level Cleveland Center
03:15PM 42.2492 -83.1022 82° East 521 600 39,000  Level Cleveland Center
03:16PM 42.2678 -82.9092 83° East 521 600 39,000  Level Cleveland Center
03:17PM 42.2861 -82.7192 83° East 515 593 39,000  Level Cleveland Center
03:18PM 42.3019 -82.5286 84° East 515 593 39,000  Level Cleveland Center
03:19PM 42.3175 -82.3356 84° East 520 598 39,000  Level Cleveland Center
03:20PM 42.3394 -82.1281 82° East 515 593 39,000  Level Cleveland Center
03:21PM 42.3542 -81.9347 84° East 515 593 39,000  Level Cleveland Center
03:22PM 42.3711 -81.7383 83° East 524 603 39,000  Level Cleveland Center
03:23PM 42.3875 -81.5447 83° East 524 603 39,000  Level Cleveland Center
03:24PM 42.4011 -81.3733 84° East 517 595 39,000  Level Cleveland Center
03:25PM 42.4169 -81.1822 84° East 517 595 39,000  Level Cleveland Center
03:26PM 42.4325 -80.9856 84° East 524 603 39,000  Level Cleveland Center
03:27PM 42.4433 -80.7914 86° East 519 597 39,000  Level Cleveland Center
03:28PM 42.4581 -80.6028 84° East 507 583 39,000  Level Cleveland Center
03:29PM 42.4725 -80.3917 85° East 507 583 39,000  Level Cleveland Center
03:30PM 42.4847 -80.2003 85° East 507 583 39,000  Level Cleveland Center
03:31PM 42.4983 -80.0086 84° East 507 583 39,000  Level Cleveland Center
03:32PM 42.5161 -79.8225 83° East 501 577 39,000  Level Cleveland Center
03:33PM 42.5272 -79.6308 85° East 501 577 39,000  Level Cleveland Center
03:34PM 42.5381 -79.4392 86° East 501 577 39,000  Level Cleveland Center
03:35PM 42.5506 -79.2500 85° East 501 577 39,000  Level Cleveland Center
03:36PM 42.5628 -79.0581 85° East 501 577 39,000  Level Cleveland Center
03:37PM 42.5747 -78.8689 85° East 501 577 39,000  Level Cleveland Center
03:38PM 42.5819 -78.6769 87° East 501 577 39,000  Level Cleveland Center
03:39PM 42.5933 -78.4878 85° East 501 577 39,000  Level Cleveland Center
03:40PM 42.6044 -78.2956 85° East 501 577 39,000  Level Cleveland Center
03:41PM 42.6128 -78.1061 87° East 501 577 39,000  Level Cleveland Center
03:42PM 42.6211 -77.9194 86° East 501 577 39,000  Level Cleveland Center
03:43PM 42.6317 -77.7469 85° East 501 577 39,000  Level Cleveland Center
03:44PM 42.6394 -77.5544 87° East 501 577 39,000  Level Cleveland Center
03:45PM 42.6467 -77.3622 87° East 501 577 39,000  Level Cleveland Center
03:46PM 42.6558 -77.1725 86° East 501 577 39,000  Level Cleveland Center
03:48PM 42.6725 -76.7614 87° East 500 575 39,000  Level Boston Center
03:49PM 42.6789 -76.5894 87° East 500 575 39,000  Level Boston Center
03:50PM 42.6864 -76.3836 87° East 494 568 39,000  Level Boston Center
03:51PM 42.6900 -76.2144 88° East 494 568 39,000  Level Boston Center
03:52PM 42.6961 -76.0253 87° East 494 568 39,000  Level Boston Center
03:53PM 42.7019 -75.8364 88° East 494 568 39,000 -480 Level Boston Center
03:54PM 42.7072 -75.6558 88° East 488 562 38,100 -1,020 Descending Boston Center
03:55PM 42.7147 -75.4556 87° East 483 556 37,000 -1,020 Descending Boston Center
03:56PM 42.7172 -75.2747 89° East 478 550 36,100 -1,260 Descending Boston Center
03:57PM 42.7225 -75.0517 88° East 478 550 34,200 -1,920 Descending Boston Center
03:58PM 42.7267 -74.8736 88° East 478 550 32,000 -2,220 Descending Boston Center
03:59PM 42.7322 -74.6958 88° East 478 550 29,900 -1,500 Descending Boston Center
04:00PM 42.7336 -74.5206 89° East 472 543 29,000 -840 Descending Boston Center
04:01PM 42.7367 -74.3453 89° East 466 536 28,300 -840 Descending Boston Center
04:02PM 42.7417 -74.1675 88° East 461 531 27,400 -1,020 Descending Boston Center
04:03PM 42.7400 -73.9922 91° East 461 531 26,300 -1,080 Descending Boston Center
04:04PM 42.7442 -73.8197 88° East 461 531 25,300 -1,020 Descending Boston Center
04:05PM 42.7544 -73.6644 85° East 456 525 24,400 -780 Descending Boston Center
04:06PM 42.7603 -73.4919 87° East 456 525 23,800 -780 Descending Boston Center
04:07PM 42.7658 -73.3225 87° East 456 525 22,900 -1,020 Descending Boston Center
04:08PM 42.7711 -73.1528 88° East 451 519 21,800 -1,140 Descending Boston Center
04:09PM 42.7764 -72.9661 88° East 444 511 20,700 -960 Descending Boston Center
04:10PM 42.7811 -72.8106 88° East 438 504 20,000 -660 Descending Boston Center
04:11PM 42.7942 -72.6919 81° East 419 482 19,400 -1,140 Descending Boston Center
04:12PM 42.8358 -72.5364 70° East 389 448 17,800 -1,680 Descending Boston Center
04:13PM 42.8694 -72.4089 70° East 375 432 16,100 -1,980 Descending Boston Center
04:14PM 42.8589 -72.2786 96° East 349 402 13,900 -1,980 Descending Boston Center
04:15PM 42.8439 -72.1483 99° East 341 392 12,200 -1,920 Descending Boston Center
04:16PM 42.8353 -72.0353 96° East 341 392 10,200 -1,800 Descending Boston Center
04:17PM 42.8786 -71.9103 65° Northeast 327 376 8,700 -1,260 Descending Boston Center
04:18PM 42.9303 -71.8247 50° Northeast 322 371 7,700 -1,140 Descending Boston Center
04:19PM 42.9922 -71.7333 47° Northeast 300 345 6,500 -1,320 Descending Boston Center
04:20PM 43.0417 -71.6675 44° Northeast 273 314 5,200 -1,500 Descending Boston Center
04:21PM 43.0764 -71.5703 64° Northeast 256 295 3,600 -1,440 Descending Boston Center
04:22PM 43.0594 -71.5108 111° Southeast 201 231 2,400 -960 Descending Boston Center
04:23PM 43.0153 -71.4858 158° South 156 180 1,700 -660 Descending Boston Center
04:24PM 42.9839 -71.4667 156° South 147 169 1,100 -720 Descending Boston Center
04:25PM 42.9461 -71.4417 154° Southeast 142 163 300 -420 Descending Boston Center
04:26PM 42.9128 -71.4308 167° South 142 163 300 9,180 Level Boston Center
04:27PM 42.8772 -71.4172 164° South 142 163 19,000 18,060 Climbing Boston Center